CST,Max TemperatureF,Mean TemperatureF,Min TemperatureF,Max Dew PointF,MeanDew PointF,Min DewpointF,Max Humidity, Mean Humidity, Min Humidity, Max Sea Level PressureIn, Mean Sea Level PressureIn, Min Sea Level PressureIn, Max VisibilityMiles, Mean VisibilityMiles, Min VisibilityMiles, Max Wind SpeedMPH, Mean Wind SpeedMPH, Max Gust SpeedMPH,PrecipitationIn, CloudCover, Events, WindDirDegrees
2012-11-1,77,62,48,54,49,42,97,71,32,30.09,30.02,29.99,10,10,7,7,2,,0.00,0,,272
2012-11-2,81,67,53,65,59,52,100,87,52,30.10,30.04,29.99,10,6,0,8,2,,0.00,3,Fog,236
2012-11-3,82,68,54,65,59,54,100,86,44,30.16,30.09,30.04,10,6,0,9,2,,0.01,2,Fog,256
2012-11-4,70,62,53,63,59,54,100,93,68,30.15,30.09,30.05,10,7,0,9,1,,0.57,5,Fog-Rain-Thunderstorm,33
2012-11-5,63,56,50,58,54,47,100,90,65,30.08,30.00,29.94,10,7,1,9,3,,0.23,6,Rain-Thunderstorm,45
2012-11-6,57,50,42,53,47,41,100,86,62,30.07,30.03,29.96,10,8,1,10,3,20,0.01,5,,340
2012-11-7,66,54,41,46,39,33,96,66,30,30.17,30.08,30.02,10,10,8,18,5,24,0.01,0,,333
2012-11-8,64,50,36,45,38,34,96,72,34,30.28,30.21,30.17,10,10,10,6,1,,0.00,0,,69
2012-11-9,71,55,39,52,47,38,97,77,45,30.26,30.21,30.17,10,9,3,12,3,,0.00,0,,163
2012-11-10,73,62,50,56,53,50,100,81,51,30.25,30.19,30.14,10,8,1,13,3,20,0.00,1,,151
2012-11-11,78,68,57,63,59,56,96,76,50,30.16,30.11,30.06,10,10,8,17,9,32,0.00,3,,148
2012-11-12,68,55,41,66,52,35,100,82,55,30.39,30.23,30.08,10,8,1,24,11,31,0.75,6,Rain,345
2012-11-13,57,47,37,35,30,25,83,57,30,30.45,30.37,30.29,10,10,10,14,7,22,0.00,0,,10
2012-11-14,60,48,37,35,31,25,82,59,27,30.35,30.30,30.25,10,10,10,12,6,16,0.00,0,,354
2012-11-15,64,52,39,44,39,34,82,68,42,30.31,30.26,30.21,10,10,10,8,4,,0.00,0,,11
2012-11-16,64,54,43,42,38,34,86,61,33,30.32,30.28,30.24,10,10,10,8,6,,0.00,0,,5
2012-11-17,66,54,41,43,37,32,80,60,28,30.38,30.32,30.27,10,10,10,8,5,,0.00,0,,28
2012-11-18,66,52,37,43,39,35,93,68,34,30.33,30.30,30.26,10,10,10,7,2,,0.00,0,,27
2012-11-19,70,56,41,49,44,39,93,72,35,30.31,30.24,30.18,10,10,10,8,1,,0.00,0,,346
2012-11-20,71,58,46,49,45,40,93,69,32,30.22,30.17,30.13,10,10,10,8,1,,0.00,2,,348
2012-11-21,75,60,44,52,45,40,93,68,29,30.23,30.18,30.14,10,10,8,12,2,16,0.00,0,,344
2012-11-22,73,58,42,52,46,41,96,73,34,30.25,30.20,30.16,10,9,5,7,1,,0.00,0,,200
2012-11-23,71,58,44,56,51,41,93,76,53,30.26,30.23,30.19,10,10,6,13,4,,0.00,5,,336
2012-11-24,57,46,32,40,32,27,96,64,33,30.34,30.25,30.19,10,10,10,12,6,17,0.00,0,,357
2012-11-25,63,46,30,45,34,27,96,68,30,30.22,30.15,30.09,10,10,10,9,2,,0.00,0,,173
2012-11-26,66,56,45,65,59,44,100,94,83,30.12,30.08,30.04,10,8,2,14,5,21,0.16,7,Rain,165
2012-11-27,64,54,44,63,52,43,100,97,93,30.33,30.19,30.04,10,4,2,15,7,22,0.48,8,Rain-Thunderstorm,358
2012-11-28,60,48,36,43,36,28,93,72,30,30.46,30.37,30.32,10,9,4,9,5,,0.00,3,,26
2012-11-29,64,49,34,43,36,31,97,70,34,30.37,30.31,30.24,10,10,5,7,2,,0.00,0,,109
2012-11-30,70,54,39,52,46,39,97,79,46,30.30,30.24,30.19,10,8,4,7,1,,0.00,0,,143